createdAt,value
2022-11-04T00:01:54.018Z,7.07
2022-11-04T00:06:53.849Z,7.17
2022-11-04T00:12:09.021Z,6.83
2022-11-04T00:17:26.612Z,7.70
2022-11-04T00:22:43.338Z,7.10
2022-11-04T00:27:58.898Z,7.90
2022-11-04T00:33:14.407Z,8.00
2022-11-04T00:38:13.707Z,6.97
2022-11-04T00:43:13.380Z,8.33
2022-11-04T00:48:11.635Z,7.10
2022-11-04T00:53:10.308Z,7.57
2022-11-04T00:58:09.901Z,7.63
2022-11-04T01:03:08.089Z,8.23
2022-11-04T01:08:06.357Z,8.20
2022-11-04T01:13:04.365Z,7.97
2022-11-04T01:18:03.597Z,7.80
2022-11-04T01:23:01.516Z,8.40
2022-11-04T01:27:59.443Z,8.73
2022-11-04T01:32:57.375Z,8.40
2022-11-04T01:37:56.630Z,8.40
2022-11-04T01:42:54.619Z,8.70
2022-11-04T01:48:00.553Z,7.70
2022-11-04T01:53:06.882Z,8.57
2022-11-04T01:58:09.489Z,8.43
2022-11-04T02:03:10.818Z,9.10
2022-11-04T02:08:13.225Z,8.37
2022-11-04T02:13:11.488Z,9.07
2022-11-04T02:18:34.702Z,9.37
2022-11-04T02:24:10.438Z,8.77
2022-11-04T02:29:46.079Z,8.63
2022-11-04T02:34:53.666Z,8.50
2022-11-04T02:39:56.118Z,9.30
2022-11-04T02:45:05.625Z,9.53
2022-11-04T02:50:12.331Z,9.83
2022-11-04T02:55:16.446Z,8.97
2022-11-04T03:00:20.325Z,8.87
2022-11-04T03:05:21.353Z,8.83
2022-11-04T03:10:24.394Z,9.33
2022-11-04T03:15:27.895Z,7.97
2022-11-04T03:20:28.563Z,8.47
2022-11-04T03:25:29.985Z,8.67
2022-11-04T03:30:35.892Z,9.33
2022-11-04T03:35:34.367Z,9.13
2022-11-04T03:40:35.474Z,9.83
2022-11-04T03:45:34.711Z,8.73
2022-11-04T03:50:35.744Z,8.90
2022-11-04T03:55:44.635Z,9.07
2022-11-04T04:00:50.470Z,8.70
2022-11-04T04:05:53.988Z,8.20
2022-11-04T04:11:06.800Z,9.20
2022-11-04T04:16:10.614Z,9.70
2022-11-04T04:21:13.065Z,9.50
2022-11-04T04:26:29.823Z,9.13
2022-11-04T04:31:48.660Z,8.70
2022-11-04T04:36:51.363Z,8.63
2022-11-04T04:42:07.577Z,7.87
2022-11-04T04:47:08.841Z,8.50
2022-11-04T04:52:09.443Z,9.47
2022-11-04T04:57:07.822Z,8.93
2022-11-04T05:02:07.298Z,8.87
2022-11-04T05:07:07.887Z,8.60
2022-11-04T05:12:05.936Z,8.60
2022-11-04T05:17:03.855Z,8.50
2022-11-04T05:22:03.115Z,9.97
2022-11-04T05:27:01.082Z,8.83
2022-11-04T05:31:58.985Z,9.43
2022-11-04T05:36:56.929Z,9.47
2022-11-04T05:41:56.233Z,8.97
2022-11-04T05:46:54.309Z,9.67
2022-11-04T05:51:52.251Z,9.53
2022-11-04T05:56:50.170Z,9.60
2022-11-04T06:01:50.280Z,10.03
2022-11-04T06:06:48.438Z,9.50
2022-11-04T06:11:46.582Z,9.60
2022-11-04T06:16:44.508Z,9.33
2022-11-04T06:21:43.753Z,9.87
2022-11-04T06:26:42.212Z,11.23
2022-11-04T06:31:40.116Z,10.03
2022-11-04T06:36:38.021Z,10.00
2022-11-04T06:41:38.828Z,11.03
2022-11-04T06:46:39.171Z,11.03
2022-11-04T06:51:37.096Z,12.17
2022-11-04T06:56:35.048Z,11.33
2022-11-04T07:01:36.537Z,11.80
2022-11-04T07:06:36.299Z,12.17
2022-11-04T07:11:39.330Z,14.17
2022-11-04T07:16:38.833Z,12.23
2022-11-04T07:21:36.844Z,13.00
2022-11-04T07:26:34.783Z,11.97
2022-11-04T07:31:32.723Z,12.50
2022-11-04T07:36:32.031Z,13.40
2022-11-04T07:41:30.886Z,12.80
2022-11-04T07:46:28.795Z,12.57
2022-11-04T07:51:27.274Z,11.27
2022-11-04T07:56:26.773Z,10.90
2022-11-04T08:01:25.641Z,12.83
2022-11-04T08:06:23.642Z,12.43
2022-11-04T08:11:24.821Z,12.67
2022-11-04T08:16:30.012Z,12.43
2022-11-04T08:21:35.051Z,12.00
2022-11-04T08:26:33.054Z,12.23
2022-11-04T08:31:33.791Z,11.00
2022-11-04T08:36:34.356Z,13.00
2022-11-04T08:41:34.514Z,10.67
2022-11-04T08:46:36.652Z,10.30
2022-11-04T08:51:37.964Z,8.77
2022-11-04T08:56:38.061Z,8.20
2022-11-04T09:01:38.580Z,8.23
2022-11-04T09:06:39.950Z,7.87
2022-11-04T09:11:40.369Z,7.33
2022-11-04T09:16:44.916Z,7.20
2022-11-04T09:21:42.860Z,6.37
2022-11-04T09:26:40.859Z,5.80
2022-11-04T09:31:40.485Z,6.33
2022-11-04T09:36:39.591Z,7.20
2022-11-04T09:41:52.323Z,6.67
2022-11-04T09:46:56.741Z,6.07
2022-11-04T09:51:56.472Z,6.53
2022-11-04T09:56:58.801Z,6.47
2022-11-04T10:02:26.140Z,6.30
2022-11-04T10:07:43.613Z,6.90
2022-11-04T10:13:01.856Z,6.80
2022-11-04T10:18:11.790Z,7.03
2022-11-04T10:23:21.577Z,7.30
2022-11-04T10:28:22.309Z,7.17
2022-11-04T10:33:29.322Z,7.07
2022-11-04T10:38:34.902Z,7.90
2022-11-04T10:43:35.655Z,7.03
2022-11-04T10:48:41.676Z,8.57
2022-11-04T10:53:39.602Z,7.03
2022-11-04T10:58:43.647Z,7.13
2022-11-04T11:03:44.093Z,6.57
2022-11-04T11:08:43.829Z,7.37
2022-11-04T11:13:43.326Z,7.17
2022-11-04T11:18:42.014Z,7.27
2022-11-04T11:23:43.918Z,7.47
2022-11-04T11:28:47.864Z,6.73
2022-11-04T11:33:52.795Z,6.80
2022-11-04T11:39:05.699Z,6.60
2022-11-04T11:44:19.145Z,7.10
2022-11-04T11:49:27.134Z,7.17
2022-11-04T11:54:34.335Z,7.03
2022-11-04T12:10:49.109Z,7.70
2022-11-04T12:16:23.885Z,7.43
2022-11-04T12:21:31.493Z,9.20
2022-11-04T12:26:37.807Z,7.60
2022-11-04T12:31:47.334Z,7.20
2022-11-04T12:37:00.663Z,7.27
2022-11-04T12:42:20.977Z,7.00
2022-11-04T12:47:33.122Z,7.77
2022-11-04T12:52:44.346Z,7.50
2022-11-04T12:57:52.510Z,7.90
2022-11-04T13:02:53.140Z,7.73
2022-11-04T13:07:56.974Z,8.20
2022-11-04T13:12:58.028Z,7.83
2022-11-04T13:17:59.657Z,7.17
2022-11-04T13:23:03.653Z,7.80
2022-11-04T13:28:07.768Z,8.57
2022-11-04T13:33:13.239Z,7.87
2022-11-04T13:38:15.954Z,7.83
2022-11-04T13:43:41.730Z,7.83
2022-11-04T13:49:00.870Z,6.93
2022-11-04T13:53:59.354Z,6.50
2022-11-04T13:59:02.271Z,8.67
2022-11-04T14:04:19.757Z,11.10
2022-11-04T14:10:00.602Z,14.17
2022-11-04T14:15:11.499Z,11.30
2022-11-04T14:20:22.226Z,10.20
2022-11-04T14:25:27.587Z,7.80
2022-11-04T14:30:47.473Z,7.70
2022-11-04T14:35:45.573Z,8.40
2022-11-04T14:40:49.079Z,7.67
2022-11-04T14:45:49.181Z,8.10
2022-11-04T14:50:50.713Z,7.63
2022-11-04T14:55:48.750Z,8.50
2022-11-04T15:00:56.691Z,8.73
2022-11-04T15:05:58.284Z,8.40
2022-11-04T15:11:00.404Z,8.00
2022-11-04T15:16:03.327Z,8.47
2022-11-04T15:21:08.016Z,8.43
2022-11-04T15:26:06.712Z,8.00
2022-11-04T15:31:17.490Z,8.20
2022-11-04T15:36:19.841Z,7.97
2022-11-04T15:41:39.105Z,7.60
2022-11-04T15:46:38.553Z,7.67
2022-11-04T15:51:40.215Z,8.60
2022-11-04T15:56:45.355Z,9.27
2022-11-04T16:01:47.918Z,8.30
2022-11-04T16:06:49.824Z,9.37
2022-11-04T16:12:08.980Z,9.20
2022-11-04T16:17:12.018Z,8.80
2022-11-04T16:22:10.884Z,9.40
2022-11-04T16:27:10.674Z,8.67
2022-11-04T16:32:17.946Z,8.97
2022-11-04T16:37:15.862Z,8.40
2022-11-04T16:42:15.127Z,9.60
2022-11-04T16:47:14.444Z,7.30
2022-11-04T16:52:16.679Z,7.70
2022-11-04T16:57:15.711Z,8.23
2022-11-04T17:02:22.279Z,8.00
2022-11-04T17:07:20.793Z,8.03
2022-11-04T17:12:18.733Z,7.77
2022-11-04T17:17:17.098Z,9.17
2022-11-04T17:22:17.326Z,9.10
2022-11-04T17:27:15.357Z,9.57
2022-11-04T17:32:13.758Z,9.30
2022-11-04T17:37:15.861Z,9.80
2022-11-04T17:42:27.679Z,9.20
2022-11-04T17:47:27.872Z,8.50
2022-11-04T17:52:27.477Z,8.60
2022-11-04T17:57:25.437Z,8.50
2022-11-04T18:02:23.425Z,7.60
2022-11-04T18:07:21.475Z,8.53
2022-11-04T18:12:38.722Z,9.30
2022-11-04T18:17:38.431Z,8.37
2022-11-04T18:22:37.014Z,8.20
2022-11-04T18:27:36.317Z,9.00
2022-11-04T18:32:38.279Z,8.27
2022-11-04T18:37:36.167Z,7.70
2022-11-04T18:42:37.609Z,8.37
2022-11-04T18:47:35.543Z,8.27
2022-11-04T18:52:33.539Z,7.37
2022-11-04T18:57:31.434Z,7.57
2022-11-04T19:02:32.428Z,9.13
2022-11-04T19:07:30.506Z,8.40
2022-11-04T19:12:46.116Z,8.33
2022-11-04T19:17:45.360Z,7.63
2022-11-04T19:22:46.404Z,8.00
2022-11-04T19:27:44.307Z,8.20
2022-11-04T19:32:42.720Z,7.47
2022-11-04T19:37:42.011Z,8.70
2022-11-04T19:42:57.498Z,8.20
2022-11-04T19:47:55.386Z,8.63
2022-11-04T19:52:54.629Z,8.20
2022-11-04T19:57:53.850Z,8.93
2022-11-04T20:02:51.796Z,8.13
2022-11-04T20:07:53.996Z,8.30
2022-11-04T20:13:10.877Z,8.30
2022-11-04T20:18:08.991Z,9.03
2022-11-04T20:23:07.398Z,8.73
2022-11-04T20:28:13.004Z,10.10
2022-11-04T20:33:11.189Z,8.30
2022-11-04T20:38:10.145Z,8.20
2022-11-04T20:43:09.536Z,9.17
2022-11-04T20:48:08.110Z,9.50
2022-11-04T20:53:06.499Z,10.33
2022-11-04T20:58:04.496Z,10.20
2022-11-04T21:03:05.333Z,9.73
2022-11-04T21:08:03.236Z,9.20
2022-11-04T21:13:01.147Z,10.90
2022-11-04T21:18:00.052Z,8.53
2022-11-04T21:22:59.297Z,8.50
2022-11-04T21:27:57.315Z,8.90
